createdAt,value
2023-01-29T00:00:10.589Z,17.10
2023-01-29T00:02:40.972Z,16.20
2023-01-29T00:05:25.915Z,16.90
2023-01-29T00:07:54.371Z,15.75
2023-01-29T00:10:21.764Z,17.30
2023-01-29T00:12:51.807Z,16.35
2023-01-29T00:15:20.985Z,16.95
2023-01-29T00:17:49.905Z,16.63
2023-01-29T00:20:19.366Z,16.95
2023-01-29T00:22:49.835Z,18.38
2023-01-29T00:25:17.737Z,17.77
2023-01-29T00:27:51.317Z,17.88
2023-01-29T00:30:38.742Z,16.50
2023-01-29T00:33:06.238Z,17.60
2023-01-29T00:35:33.650Z,18.23
2023-01-29T00:38:00.946Z,17.90
2023-01-29T00:40:28.278Z,18.80
2023-01-29T00:43:14.228Z,18.35
2023-01-29T00:45:41.540Z,18.33
2023-01-29T00:48:08.858Z,17.45
2023-01-29T00:50:36.137Z,17.27
2023-01-29T00:53:03.455Z,15.43
2023-01-29T00:55:30.838Z,16.85
2023-01-29T00:57:58.350Z,19.98
2023-01-29T01:00:25.874Z,23.80
2023-01-29T01:03:18.105Z,20.67
2023-01-29T01:05:47.803Z,20.60
2023-01-29T01:08:33.615Z,21.02
2023-01-29T01:11:10.067Z,16.83
2023-01-29T01:13:39.125Z,22.77
2023-01-29T01:16:30.026Z,21.52
2023-01-29T01:18:57.426Z,22.38
2023-01-29T01:21:25.113Z,24.38
2023-01-29T01:23:53.601Z,17.88
2023-01-29T01:26:20.950Z,21.10
2023-01-29T01:28:48.271Z,17.67
2023-01-29T01:31:15.766Z,15.27
2023-01-29T01:33:43.088Z,15.15
2023-01-29T01:36:10.401Z,15.40
2023-01-29T01:38:45.269Z,12.45
2023-01-29T01:41:18.012Z,13.90
2023-01-29T01:43:58.177Z,22.92
2023-01-29T01:46:28.417Z,13.73
2023-01-29T01:49:07.704Z,13.13
2023-01-29T01:51:36.057Z,13.38
2023-01-29T01:54:08.411Z,12.05
2023-01-29T01:56:40.823Z,13.18
2023-01-29T01:59:11.102Z,15.10
2023-01-29T02:01:41.135Z,14.27
2023-01-29T02:04:39.086Z,13.05
2023-01-29T02:07:26.349Z,13.02
2023-01-29T02:10:01.844Z,17.30
2023-01-29T02:12:31.226Z,14.07
2023-01-29T02:14:58.657Z,20.73
2023-01-29T02:17:26.025Z,20.25
2023-01-29T02:20:08.915Z,14.30
2023-01-29T02:22:49.396Z,26.25
2023-01-29T02:25:25.451Z,18.55
2023-01-29T02:28:06.713Z,15.75
2023-01-29T02:30:47.498Z,28.08
2023-01-29T02:33:14.950Z,18.83
2023-01-29T02:35:50.825Z,10.73
2023-01-29T02:38:32.751Z,10.32
2023-01-29T02:41:14.528Z,10.40
2023-01-29T02:44:03.176Z,11.52
2023-01-29T02:46:47.071Z,12.38
2023-01-29T02:49:20.468Z,12.23
2023-01-29T02:51:56.293Z,13.50
2023-01-29T02:54:27.983Z,12.52
2023-01-29T02:57:00.695Z,11.75
2023-01-29T02:59:50.016Z,14.05
2023-01-29T03:02:20.958Z,11.95
2023-01-29T03:04:51.959Z,12.07
2023-01-29T03:07:44.472Z,15.05
2023-01-29T03:10:18.551Z,11.85
2023-01-29T03:12:48.213Z,11.60
2023-01-29T03:15:19.096Z,12.13
2023-01-29T03:18:16.615Z,11.27
2023-01-29T03:20:49.727Z,11.32
2023-01-29T03:23:24.090Z,11.70
2023-01-29T03:26:11.315Z,11.23
2023-01-29T03:28:58.266Z,11.90
2023-01-29T03:31:44.610Z,11.93
2023-01-29T03:34:44.008Z,11.65
2023-01-29T03:37:42.908Z,11.85
2023-01-29T03:40:15.112Z,12.15
2023-01-29T03:42:50.636Z,12.13
2023-01-29T03:45:22.528Z,11.45
2023-01-29T03:48:15.338Z,11.52
2023-01-29T03:50:53.937Z,11.93
2023-01-29T03:53:40.448Z,12.27
2023-01-29T03:56:11.109Z,12.32
2023-01-29T03:58:53.760Z,11.75
2023-01-29T04:01:40.000Z,11.98
2023-01-29T04:04:33.546Z,12.50
2023-01-29T04:07:11.083Z,11.98
2023-01-29T04:09:43.880Z,12.45
2023-01-29T04:12:12.018Z,11.40
2023-01-29T04:14:42.992Z,11.35
2023-01-29T04:17:23.583Z,11.20
2023-01-29T04:20:00.616Z,12.35
2023-01-29T04:22:35.987Z,12.50
2023-01-29T04:25:08.802Z,11.77
2023-01-29T04:27:40.700Z,12.15
2023-01-29T04:30:17.928Z,12.68
2023-01-29T04:33:07.933Z,12.75
2023-01-29T04:35:55.634Z,13.45
2023-01-29T04:38:35.247Z,12.20
2023-01-29T04:41:15.277Z,12.85
2023-01-29T04:43:53.552Z,12.00
2023-01-29T04:46:57.377Z,12.70
2023-01-29T04:49:31.044Z,12.63
2023-01-29T04:52:04.481Z,12.98
2023-01-29T04:54:57.738Z,13.30
2023-01-29T04:57:27.024Z,13.35
2023-01-29T05:00:08.085Z,13.32
2023-01-29T05:02:39.292Z,12.05
2023-01-29T05:05:07.598Z,12.50
2023-01-29T05:07:36.074Z,12.77
2023-01-29T05:10:05.555Z,12.95
2023-01-29T05:12:32.966Z,12.98
2023-01-29T05:15:02.319Z,13.45
2023-01-29T05:17:29.781Z,14.15
2023-01-29T05:19:57.244Z,13.43
2023-01-29T05:22:24.558Z,13.90
2023-01-29T05:24:51.863Z,13.23
2023-01-29T05:27:40.528Z,12.80
2023-01-29T05:30:08.691Z,12.48
2023-01-29T05:32:35.990Z,12.23
2023-01-29T05:35:03.360Z,11.73
2023-01-29T05:37:30.685Z,11.65
2023-01-29T05:39:57.976Z,12.82
2023-01-29T05:42:25.368Z,11.75
2023-01-29T05:44:52.704Z,12.55
2023-01-29T05:47:20.594Z,13.68
2023-01-29T05:49:47.899Z,13.40
2023-01-29T05:52:15.187Z,13.45
2023-01-29T05:54:42.556Z,13.77
2023-01-29T05:57:09.903Z,12.93
2023-01-29T05:59:37.199Z,13.73
2023-01-29T06:02:04.564Z,12.02
2023-01-29T06:04:31.937Z,11.80
2023-01-29T06:06:59.302Z,10.85
2023-01-29T06:09:26.729Z,11.02
2023-01-29T06:11:54.009Z,12.40
2023-01-29T06:14:21.372Z,11.55
2023-01-29T06:16:48.715Z,11.90
2023-01-29T06:19:18.083Z,12.48
2023-01-29T06:21:45.384Z,14.90
2023-01-29T06:24:12.758Z,12.70
2023-01-29T06:26:40.131Z,12.38
2023-01-29T06:29:07.456Z,11.50
2023-01-29T06:31:39.299Z,12.20
2023-01-29T06:34:07.761Z,10.60
2023-01-29T06:36:35.209Z,9.85
2023-01-29T06:39:02.957Z,10.05
2023-01-29T06:41:30.298Z,11.63
2023-01-29T06:43:57.645Z,10.85
2023-01-29T06:46:25.003Z,11.40
2023-01-29T06:48:52.305Z,11.25
2023-01-29T06:51:19.649Z,11.20
2023-01-29T06:53:47.079Z,11.23
2023-01-29T06:56:14.458Z,10.60
2023-01-29T06:58:43.473Z,11.00
2023-01-29T07:01:17.376Z,14.15
2023-01-29T07:03:52.596Z,12.18
2023-01-29T07:06:19.986Z,11.75
2023-01-29T07:08:47.248Z,12.68
2023-01-29T07:11:14.644Z,13.15
2023-01-29T07:13:41.917Z,13.00
2023-01-29T07:16:09.860Z,13.40
2023-01-29T07:18:37.484Z,14.45
2023-01-29T07:21:06.556Z,13.93
2023-01-29T07:23:34.957Z,13.73
2023-01-29T07:26:05.588Z,14.48
2023-01-29T07:28:36.564Z,33.38
2023-01-29T07:31:04.041Z,14.32
2023-01-29T07:33:32.758Z,12.75
2023-01-29T07:36:00.088Z,11.40
2023-01-29T07:38:27.439Z,13.02
2023-01-29T07:40:55.128Z,12.77
2023-01-29T07:43:24.764Z,11.50
2023-01-29T07:45:52.556Z,11.00
2023-01-29T07:48:20.002Z,11.70
2023-01-29T07:50:54.655Z,11.77
2023-01-29T07:53:22.027Z,11.68
2023-01-29T07:55:49.339Z,12.45
2023-01-29T07:58:16.707Z,11.07
2023-01-29T08:00:44.281Z,12.10
2023-01-29T08:03:13.480Z,12.52
2023-01-29T08:05:40.777Z,12.80
2023-01-29T08:08:08.172Z,11.57
2023-01-29T08:10:36.001Z,12.75
2023-01-29T08:13:03.601Z,13.07
2023-01-29T08:15:30.954Z,11.38
2023-01-29T08:17:58.615Z,12.18
2023-01-29T08:20:25.989Z,12.35
2023-01-29T08:23:03.237Z,11.32
2023-01-29T08:25:30.942Z,11.02
2023-01-29T08:27:58.498Z,10.48
2023-01-29T08:30:27.087Z,11.25
2023-01-29T08:32:54.432Z,10.23
2023-01-29T08:35:22.037Z,10.63
2023-01-29T08:37:56.486Z,10.43
2023-01-29T08:40:23.803Z,10.45
2023-01-29T08:42:51.196Z,10.30
2023-01-29T08:45:18.626Z,9.48
2023-01-29T08:47:49.467Z,9.85
2023-01-29T08:50:17.799Z,9.95
2023-01-29T08:52:45.838Z,9.90
2023-01-29T08:55:13.393Z,10.25
2023-01-29T08:57:40.693Z,10.45
2023-01-29T09:00:09.387Z,10.15
2023-01-29T09:02:37.205Z,10.77
2023-01-29T09:05:05.451Z,10.68
2023-01-29T09:07:32.834Z,10.25
2023-01-29T09:10:00.133Z,10.65
2023-01-29T09:12:27.484Z,11.60
2023-01-29T09:14:54.839Z,10.77
2023-01-29T09:17:22.139Z,11.70
2023-01-29T09:19:49.570Z,10.63
2023-01-29T09:22:16.884Z,11.10
2023-01-29T09:24:44.195Z,12.10
2023-01-29T09:27:11.623Z,11.83
2023-01-29T09:29:38.936Z,11.93
2023-01-29T09:32:07.015Z,11.48
2023-01-29T09:34:34.963Z,12.30
2023-01-29T09:37:02.290Z,12.95
2023-01-29T09:39:29.661Z,12.38
2023-01-29T09:42:09.791Z,12.68
2023-01-29T09:44:39.884Z,13.10
2023-01-29T09:47:08.350Z,13.98
2023-01-29T09:49:42.388Z,13.63
2023-01-29T09:55:32.589Z,12.68
2023-01-29T09:58:00.902Z,14.82
2023-01-29T10:01:07.702Z,13.55
2023-01-29T10:03:59.771Z,13.00
2023-01-29T10:07:04.506Z,14.30
2023-01-29T10:09:54.958Z,13.82
2023-01-29T10:12:32.103Z,13.50
2023-01-29T10:15:33.408Z,13.23
2023-01-29T10:18:35.594Z,14.02
2023-01-29T10:21:11.862Z,14.75
2023-01-29T10:23:41.609Z,12.43
2023-01-29T10:26:11.484Z,12.70
2023-01-29T10:28:46.439Z,12.70
2023-01-29T10:31:27.804Z,13.63
2023-01-29T10:34:02.395Z,13.82
2023-01-29T10:36:47.591Z,12.10
2023-01-29T10:39:17.386Z,13.45
2023-01-29T10:42:12.728Z,13.32
2023-01-29T10:44:40.081Z,11.93
2023-01-29T10:47:13.461Z,13.73
2023-01-29T10:49:46.105Z,13.50
2023-01-29T10:52:49.937Z,13.43
2023-01-29T10:55:23.146Z,13.50
2023-01-29T10:57:58.426Z,13.33
2023-01-29T11:00:47.185Z,12.27
2023-01-29T11:03:46.879Z,12.45
2023-01-29T11:06:24.066Z,12.00
2023-01-29T11:08:53.039Z,12.95
2023-01-29T11:11:24.645Z,12.25
2023-01-29T11:14:00.161Z,13.07
2023-01-29T11:16:28.486Z,12.85
2023-01-29T11:19:01.157Z,12.73
2023-01-29T11:21:29.573Z,13.10
2023-01-29T11:24:16.803Z,12.70
2023-01-29T11:26:45.809Z,12.10
2023-01-29T11:29:34.391Z,13.25
2023-01-29T11:32:06.260Z,11.73
2023-01-29T11:34:35.226Z,12.70
2023-01-29T11:37:16.700Z,17.67
2023-01-29T11:39:47.091Z,13.25
2023-01-29T11:42:21.470Z,12.77
2023-01-29T11:44:48.892Z,12.30
2023-01-29T11:47:16.184Z,13.43
2023-01-29T11:49:50.740Z,14.38
2023-01-29T11:52:19.798Z,12.82
2023-01-29T11:54:57.957Z,13.95
2023-01-29T11:57:38.774Z,14.45
2023-01-29T12:00:13.639Z,14.57
2023-01-29T12:02:48.024Z,15.15
2023-01-29T12:05:20.128Z,14.38
2023-01-29T12:07:51.462Z,14.82
2023-01-29T12:10:51.775Z,15.30
2023-01-29T12:13:26.002Z,14.38
2023-01-29T12:16:24.021Z,14.55
2023-01-29T12:19:14.031Z,14.45
2023-01-29T12:21:46.856Z,14.57
2023-01-29T12:24:28.071Z,15.75
2023-01-29T12:27:08.979Z,14.25
2023-01-29T12:29:46.727Z,15.23
2023-01-29T12:32:38.985Z,15.85
2023-01-29T12:35:26.132Z,15.30
2023-01-29T12:38:08.601Z,15.35
2023-01-29T12:40:45.977Z,15.52
2023-01-29T12:43:22.239Z,15.63
2023-01-29T12:45:52.223Z,16.00
2023-01-29T12:48:23.642Z,15.20
2023-01-29T12:50:50.968Z,14.57
2023-01-29T12:53:27.664Z,15.00
2023-01-29T12:55:59.877Z,14.85
2023-01-29T12:58:42.352Z,15.57
2023-01-29T13:01:17.660Z,17.45
2023-01-29T13:04:03.123Z,15.88
2023-01-29T13:06:36.812Z,15.82
2023-01-29T13:09:06.373Z,16.42
2023-01-29T13:11:50.630Z,16.15
2023-01-29T13:14:40.961Z,16.40
2023-01-29T13:17:14.241Z,15.25
2023-01-29T13:19:45.346Z,16.23
2023-01-29T13:22:25.973Z,15.73
2023-01-29T13:25:04.092Z,15.27
2023-01-29T13:27:33.208Z,15.80
2023-01-29T13:30:00.541Z,15.18
2023-01-29T13:32:32.531Z,15.20
2023-01-29T13:35:20.336Z,15.13
2023-01-29T13:37:52.336Z,15.80
2023-01-29T13:40:27.628Z,15.82
2023-01-29T13:42:55.180Z,15.68
2023-01-29T13:45:43.406Z,14.95
2023-01-29T13:48:43.952Z,14.88
2023-01-29T13:51:20.217Z,15.45
2023-01-29T13:54:08.087Z,15.30
2023-01-29T13:56:35.393Z,16.45
2023-01-29T13:59:06.091Z,14.27
2023-01-29T14:01:48.817Z,14.82
2023-01-29T14:04:19.283Z,14.93
2023-01-29T14:06:48.763Z,14.80
2023-01-29T14:09:37.208Z,12.50
2023-01-29T14:12:31.904Z,12.82
2023-01-29T14:15:06.279Z,11.95
2023-01-29T14:17:33.616Z,12.52
2023-01-29T14:20:27.722Z,12.63
2023-01-29T14:22:59.975Z,13.57
2023-01-29T14:25:35.229Z,13.43
2023-01-29T14:28:03.104Z,15.30
2023-01-29T14:30:31.512Z,16.80
2023-01-29T14:32:58.858Z,14.25
2023-01-29T14:35:27.511Z,13.32
2023-01-29T14:37:56.628Z,12.85
2023-01-29T14:40:25.134Z,12.30
2023-01-29T14:43:05.833Z,11.63
2023-01-29T14:45:41.776Z,10.63
2023-01-29T14:48:38.545Z,11.20
2023-01-29T14:51:15.760Z,11.05
2023-01-29T14:53:50.579Z,12.85
2023-01-29T14:56:36.687Z,11.90
2023-01-29T14:59:22.064Z,12.77
2023-01-29T15:01:56.321Z,12.68
2023-01-29T15:04:41.253Z,13.27
2023-01-29T15:07:15.221Z,12.68
2023-01-29T15:09:55.668Z,13.40
2023-01-29T15:12:31.504Z,12.80
2023-01-29T15:15:16.120Z,13.02
2023-01-29T15:17:56.137Z,12.00
2023-01-29T15:20:27.418Z,12.48
2023-01-29T15:22:54.791Z,12.75
2023-01-29T15:25:22.124Z,12.60
2023-01-29T15:27:49.457Z,13.52
2023-01-29T15:30:22.566Z,12.55
2023-01-29T15:32:49.883Z,12.40
2023-01-29T15:35:53.693Z,11.65
2023-01-29T15:38:29.556Z,12.10
2023-01-29T15:41:01.761Z,12.88
2023-01-29T15:43:36.181Z,13.05
2023-01-29T15:46:06.049Z,13.00
2023-01-29T15:48:36.199Z,12.23
2023-01-29T15:51:06.132Z,11.77
2023-01-29T15:53:38.601Z,12.27
2023-01-29T15:56:11.894Z,12.45
2023-01-29T15:58:39.253Z,12.53
2023-01-29T16:01:07.126Z,12.68
2023-01-29T16:03:35.557Z,13.25
2023-01-29T16:06:02.967Z,12.90
2023-01-29T16:08:30.334Z,13.13
2023-01-29T16:10:59.425Z,12.73
2023-01-29T16:13:29.149Z,12.88
2023-01-29T16:16:00.836Z,12.98
2023-01-29T16:18:36.483Z,13.10
2023-01-29T16:21:23.004Z,12.43
2023-01-29T16:23:58.269Z,13.52
2023-01-29T16:26:33.297Z,13.48
2023-01-29T16:29:05.208Z,13.20
2023-01-29T16:31:33.145Z,13.43
2023-01-29T16:34:05.453Z,13.52
2023-01-29T16:36:32.805Z,13.48
2023-01-29T16:39:05.782Z,12.93
2023-01-29T16:41:37.535Z,13.13
2023-01-29T16:44:31.855Z,13.13
2023-01-29T16:47:05.953Z,13.30
2023-01-29T16:52:25.259Z,14.32
2023-01-29T16:54:53.540Z,13.32
2023-01-29T16:57:26.337Z,13.60
2023-01-29T16:59:55.455Z,12.25
2023-01-29T17:02:33.607Z,12.88
2023-01-29T17:05:06.783Z,13.45
2023-01-29T17:07:34.197Z,14.20
2023-01-29T17:10:03.354Z,13.15
2023-01-29T17:12:31.193Z,13.38
2023-01-29T17:15:01.211Z,14.30
2023-01-29T17:17:30.318Z,15.27
2023-01-29T17:19:58.863Z,14.23
2023-01-29T17:22:26.249Z,13.98
2023-01-29T17:24:53.543Z,14.57
2023-01-29T17:27:22.214Z,15.18
2023-01-29T17:29:49.686Z,15.48
2023-01-29T17:32:19.952Z,14.57
2023-01-29T17:34:47.357Z,15.77
2023-01-29T17:37:15.365Z,15.80
2023-01-29T17:39:43.482Z,15.10
2023-01-29T17:42:13.149Z,16.13
2023-01-29T17:44:41.362Z,14.40
2023-01-29T17:47:17.595Z,14.85
2023-01-29T17:49:44.919Z,15.25
2023-01-29T17:52:12.215Z,15.23
2023-01-29T17:54:39.492Z,14.75
2023-01-29T17:57:06.899Z,15.63
2023-01-29T17:59:34.326Z,15.38
2023-01-29T18:02:01.763Z,15.52
2023-01-29T18:04:29.159Z,14.38
2023-01-29T18:06:56.459Z,15.60
2023-01-29T18:09:24.645Z,17.10
2023-01-29T18:11:52.420Z,14.77
2023-01-29T18:14:20.362Z,14.73
2023-01-29T18:16:47.818Z,14.93
2023-01-29T18:19:16.906Z,15.25
2023-01-29T18:21:44.561Z,14.70
2023-01-29T18:24:11.911Z,14.93
2023-01-29T18:26:39.249Z,15.00
2023-01-29T18:29:06.683Z,16.23
2023-01-29T18:31:34.071Z,16.20
2023-01-29T18:34:01.394Z,15.35
2023-01-29T18:36:28.834Z,15.98
2023-01-29T18:38:57.005Z,15.80
2023-01-29T18:41:24.383Z,15.38
2023-01-29T18:43:52.826Z,15.05
2023-01-29T18:46:20.790Z,15.77
2023-01-29T18:48:48.158Z,15.13
2023-01-29T18:51:15.542Z,15.57
2023-01-29T18:53:42.935Z,16.05
2023-01-29T18:56:10.254Z,15.05
2023-01-29T18:58:37.564Z,16.23
2023-01-29T19:01:10.185Z,16.27
2023-01-29T19:03:38.521Z,16.15
2023-01-29T19:06:07.043Z,15.23
2023-01-29T19:08:34.791Z,16.80
2023-01-29T19:11:03.951Z,16.70
2023-01-29T19:13:35.117Z,16.42
2023-01-29T19:16:02.547Z,16.70
2023-01-29T19:18:29.841Z,17.05
2023-01-29T19:20:57.692Z,16.90
2023-01-29T19:23:25.088Z,16.30
2023-01-29T19:25:52.415Z,16.83
2023-01-29T19:28:19.716Z,16.73
2023-01-29T19:30:47.052Z,17.25
2023-01-29T19:33:14.437Z,17.35
2023-01-29T19:35:44.774Z,16.60
2023-01-29T19:38:12.158Z,17.17
2023-01-29T19:40:39.649Z,17.13
2023-01-29T19:43:07.084Z,17.30
2023-01-29T19:45:49.856Z,18.70
2023-01-29T19:48:21.305Z,18.87
2023-01-29T19:50:53.023Z,16.85
2023-01-29T19:53:20.614Z,16.60
2023-01-29T19:55:48.475Z,17.67
2023-01-29T19:58:15.792Z,16.02
2023-01-29T20:00:43.123Z,16.70
2023-01-29T20:03:10.469Z,16.50
2023-01-29T20:05:37.783Z,16.58
2023-01-29T20:08:05.526Z,16.60
2023-01-29T20:10:32.843Z,18.02
2023-01-29T20:13:00.431Z,16.88
2023-01-29T20:15:27.754Z,17.02
2023-01-29T20:17:55.053Z,17.60
2023-01-29T20:20:22.370Z,17.08
2023-01-29T20:22:51.641Z,16.45
2023-01-29T20:25:19.067Z,18.27
2023-01-29T20:27:46.455Z,17.20
2023-01-29T20:30:14.082Z,16.60
2023-01-29T20:32:41.458Z,16.67
2023-01-29T20:35:09.382Z,17.25
2023-01-29T20:37:36.772Z,16.67
2023-01-29T20:40:04.481Z,17.15
2023-01-29T20:42:31.806Z,18.00
2023-01-29T20:44:59.116Z,16.30
2023-01-29T20:47:26.445Z,16.73
2023-01-29T20:49:53.770Z,17.55
2023-01-29T20:52:21.396Z,16.63
2023-01-29T20:54:48.782Z,16.95
2023-01-29T20:57:16.206Z,17.30
2023-01-29T20:59:45.073Z,17.13
2023-01-29T21:02:12.489Z,16.58
2023-01-29T21:04:39.830Z,17.33
2023-01-29T21:07:07.170Z,17.88
2023-01-29T21:09:34.613Z,16.33
2023-01-29T21:12:02.175Z,18.95
2023-01-29T21:14:29.520Z,20.05
2023-01-29T21:16:56.966Z,18.33
2023-01-29T21:19:24.255Z,18.20
2023-01-29T21:21:51.605Z,18.77
2023-01-29T21:24:18.923Z,18.48
2023-01-29T21:26:46.705Z,18.15
2023-01-29T21:29:14.410Z,19.02
2023-01-29T21:31:41.880Z,19.02
2023-01-29T21:34:09.197Z,18.80
2023-01-29T21:36:36.852Z,19.27
2023-01-29T21:39:16.441Z,18.35
2023-01-29T21:42:02.765Z,18.75
2023-01-29T21:44:30.283Z,19.73
2023-01-29T21:46:57.648Z,19.58
2023-01-29T21:49:25.053Z,20.45
2023-01-29T21:51:52.602Z,19.55
2023-01-29T21:54:19.936Z,19.25
2023-01-29T21:56:47.221Z,20.05
2023-01-29T21:59:14.605Z,20.55
2023-01-29T22:01:41.967Z,20.85
2023-01-29T22:04:09.764Z,20.60
2023-01-29T22:06:37.073Z,20.13
2023-01-29T22:09:04.489Z,20.88
2023-01-29T22:11:31.980Z,20.45
2023-01-29T22:13:59.414Z,20.48
2023-01-29T22:16:26.734Z,20.95
2023-01-29T22:18:54.049Z,20.85
2023-01-29T22:21:21.519Z,21.48
2023-01-29T22:23:49.516Z,21.35
2023-01-29T22:26:17.055Z,20.70
2023-01-29T22:28:44.417Z,20.17
2023-01-29T22:31:11.796Z,21.52
2023-01-29T22:33:39.120Z,21.02
2023-01-29T22:36:06.901Z,21.55
2023-01-29T22:38:34.214Z,21.92
2023-01-29T22:41:01.583Z,21.25
2023-01-29T22:43:31.993Z,21.73
2023-01-29T22:45:59.359Z,22.02
2023-01-29T22:48:28.524Z,21.25
2023-01-29T22:51:09.708Z,22.27
2023-01-29T22:53:41.588Z,22.23
2023-01-29T22:56:09.044Z,22.00
2023-01-29T22:58:36.497Z,21.73
2023-01-29T23:01:04.438Z,21.60
2023-01-29T23:03:31.757Z,22.08
2023-01-29T23:05:59.132Z,22.23
2023-01-29T23:08:27.043Z,22.73
2023-01-29T23:10:54.476Z,21.88
2023-01-29T23:13:21.815Z,23.55
2023-01-29T23:15:58.740Z,22.65
2023-01-29T23:18:26.066Z,23.52
2023-01-29T23:20:57.565Z,23.10
2023-01-29T23:23:25.015Z,23.25
2023-01-29T23:26:16.338Z,24.95
2023-01-29T23:28:43.926Z,23.13
2023-01-29T23:31:11.400Z,24.35
2023-01-29T23:33:38.779Z,23.13
2023-01-29T23:36:06.793Z,23.60
2023-01-29T23:38:34.336Z,23.27
2023-01-29T23:41:01.694Z,23.10
2023-01-29T23:43:29.099Z,22.77
2023-01-29T23:45:56.454Z,22.88
2023-01-29T23:48:23.822Z,23.38
2023-01-29T23:50:51.278Z,23.05
2023-01-29T23:53:18.632Z,23.15
2023-01-29T23:55:58.245Z,22.58
2023-01-29T23:58:25.791Z,22.77
